Foxfield, Colorado
Current Conditions -  °F | °C
As of 3:58 PM on Saturday 20 Dec 2014 (Local Time) from KBKF Reporting Station
Broken Clouds Broken Clouds  
Wind Chill: 38°   Ceiling: 20000
Heat Index: 41°   Visibility: 10mi
Dew Point: 19°   Wind: 6mph
Humidity: 41%   Direction: 100°E
Pressure: 29.94"   Gusts: NA
Location:  39.6109°N, 104.687°W
Report Text: KBKF 202258Z 10005KT 10SM SCT100 BKN200 05/M07 A2994 RMK AO2A SLP134 T00521071
Loading
Personal Weather Stations






























Interactive Weather Map New forecast layout! Learn more

10-Day Weather Forecast

Advertisements
Track Severe Weather on mobile